sensor_id;sensor_type;location;lat;lon;timestamp;pressure;altitude;pressure_sealevel;temperature;humidity
52249;BME280;38541;48.130;8.378;2024-03-23T00:55:37;92184.88;;;9.39;63.64
52249;BME280;38541;48.130;8.378;2024-03-23T00:58:03;92177.03;;;9.29;62.82
52249;BME280;38541;48.130;8.378;2024-03-23T01:00:28;92170.19;;;9.33;64.35
52249;BME280;38541;48.130;8.378;2024-03-23T01:02:54;92166.03;;;9.27;64.11
52249;BME280;38541;48.130;8.378;2024-03-23T01:05:19;92177.03;;;9.29;64.35
52249;BME280;38541;48.130;8.378;2024-03-23T01:07:45;92173.38;;;9.25;64.29
52249;BME280;38541;48.130;8.378;2024-03-23T01:10:11;92159.97;;;9.26;64.68
52249;BME280;38541;48.130;8.378;2024-03-23T01:12:36;92151.91;;;9.23;64.68
52249;BME280;38541;48.130;8.378;2024-03-23T01:15:02;92148.22;;;9.24;64.23
52249;BME280;38541;48.130;8.378;2024-03-23T01:17:28;92149.28;;;9.23;65.22
52249;BME280;38541;48.130;8.378;2024-03-23T01:19:53;92145.09;;;9.22;64.91
52249;BME280;38541;48.130;8.378;2024-03-23T01:22:19;92140.34;;;9.24;64.51
52249;BME280;38541;48.130;8.378;2024-03-23T01:24:44;92141.09;;;9.35;66.24
52249;BME280;38541;48.130;8.378;2024-03-23T01:27:10;92132.94;;;9.36;65.75
52249;BME280;38541;48.130;8.378;2024-03-23T01:29:35;92123.69;;;9.54;68.08
52249;BME280;38541;48.130;8.378;2024-03-23T01:32:01;92115.66;;;9.80;67.73
52249;BME280;38541;48.130;8.378;2024-03-23T01:34:26;92106.44;;;9.88;67.25
52249;BME280;38541;48.130;8.378;2024-03-23T01:36:53;92109.47;;;10.06;66.67
52249;BME280;38541;48.130;8.378;2024-03-23T01:39:19;92115.81;;;9.99;65.19
52249;BME280;38541;48.130;8.378;2024-03-23T01:41:44;92117.44;;;9.90;64.87
52249;BME280;38541;48.130;8.378;2024-03-23T01:44:10;92111.22;;;10.16;67.39
52249;BME280;38541;48.130;8.378;2024-03-23T01:46:39;92117.88;;;10.37;67.01
52249;BME280;38541;48.130;8.378;2024-03-23T01:49:07;92099.00;;;10.65;66.86
52249;BME280;38541;48.130;8.378;2024-03-23T01:51:33;92106.69;;;10.85;66.48
52249;BME280;38541;48.130;8.378;2024-03-23T01:53:59;92099.59;;;11.10;65.65
52249;BME280;38541;48.130;8.378;2024-03-23T01:56:34;92096.28;;;11.24;65.61
52249;BME280;38541;48.130;8.378;2024-03-23T01:59:04;92091.47;;;11.31;64.95
52249;BME280;38541;48.130;8.378;2024-03-23T02:01:31;92081.03;;;11.45;64.74
52249;BME280;38541;48.130;8.378;2024-03-23T02:03:57;92087.50;;;11.53;64.44
52249;BME280;38541;48.130;8.378;2024-03-23T02:06:24;92076.31;;;11.61;64.09
52249;BME280;38541;48.130;8.378;2024-03-23T02:08:50;92067.88;;;11.64;64.35
52249;BME280;38541;48.130;8.378;2024-03-23T02:11:16;92084.09;;;11.72;63.54
52249;BME280;38541;48.130;8.378;2024-03-23T02:13:41;92062.69;;;11.78;63.35
52249;BME280;38541;48.130;8.378;2024-03-23T02:16:07;92068.13;;;11.82;63.18
52249;BME280;38541;48.130;8.378;2024-03-23T02:18:33;92067.78;;;11.89;63.09
52249;BME280;38541;48.130;8.378;2024-03-23T02:20:59;92064.88;;;11.90;62.96
52249;BME280;38541;48.130;8.378;2024-03-23T02:23:24;92056.13;;;11.95;62.99
52249;BME280;38541;48.130;8.378;2024-03-23T02:25:50;92053.66;;;12.04;62.74
52249;BME280;38541;48.130;8.378;2024-03-23T02:28:16;92061.03;;;12.02;62.71
52249;BME280;38541;48.130;8.378;2024-03-23T02:30:42;92061.47;;;12.09;62.65
52249;BME280;38541;48.130;8.378;2024-03-23T02:33:08;92059.91;;;12.08;62.92
52249;BME280;38541;48.130;8.378;2024-03-23T02:35:34;92062.22;;;12.09;62.42
52249;BME280;38541;48.130;8.378;2024-03-23T02:37:59;92049.00;;;12.15;62.51
52249;BME280;38541;48.130;8.378;2024-03-23T02:40:25;92045.84;;;12.12;62.00
52249;BME280;38541;48.130;8.378;2024-03-23T02:42:51;92051.31;;;12.16;61.70
52249;BME280;38541;48.130;8.378;2024-03-23T02:45:17;92061.09;;;12.16;61.20
52249;BME280;38541;48.130;8.378;2024-03-23T02:47:43;92052.50;;;12.10;60.50
52249;BME280;38541;48.130;8.378;2024-03-23T02:50:09;92046.72;;;12.08;59.67
52249;BME280;38541;48.130;8.378;2024-03-23T02:52:35;92058.13;;;12.03;59.00
52249;BME280;38541;48.130;8.378;2024-03-23T02:55:01;92075.63;;;11.94;57.87
52249;BME280;38541;48.130;8.378;2024-03-23T02:57:27;92055.56;;;11.98;58.08
52249;BME280;38541;48.130;8.378;2024-03-23T02:59:53;92040.13;;;11.91;58.07
52249;BME280;38541;48.130;8.378;2024-03-23T03:02:19;92037.56;;;11.86;58.23
52249;BME280;38541;48.130;8.378;2024-03-23T03:04:45;92036.00;;;11.85;58.47
52249;BME280;38541;48.130;8.378;2024-03-23T03:07:10;92035.44;;;11.88;57.88
52249;BME280;38541;48.130;8.378;2024-03-23T03:09:36;92025.97;;;11.87;57.79
52249;BME280;38541;48.130;8.378;2024-03-23T03:12:05;92020.72;;;11.87;57.75
52249;BME280;38541;48.130;8.378;2024-03-23T03:14:31;92024.47;;;11.81;57.78
52249;BME280;38541;48.130;8.378;2024-03-23T03:16:56;92017.50;;;11.90;57.68
52249;BME280;38541;48.130;8.378;2024-03-23T03:19:22;92004.34;;;11.90;57.68
52249;BME280;38541;48.130;8.378;2024-03-23T03:21:47;92014.75;;;11.81;57.27
52249;BME280;38541;48.130;8.378;2024-03-23T03:24:13;92008.28;;;11.74;57.68
52249;BME280;38541;48.130;8.378;2024-03-23T03:26:39;91998.25;;;11.76;57.68
52249;BME280;38541;48.130;8.378;2024-03-23T03:29:04;91991.91;;;11.77;57.74
52249;BME280;38541;48.130;8.378;2024-03-23T03:31:30;91988.78;;;11.75;57.25
52249;BME280;38541;48.130;8.378;2024-03-23T03:33:56;91997.25;;;11.72;57.48
52249;BME280;38541;48.130;8.378;2024-03-23T03:36:22;91980.88;;;11.75;57.43
52249;BME280;38541;48.130;8.378;2024-03-23T03:38:47;91984.72;;;11.82;57.69
52249;BME280;38541;48.130;8.378;2024-03-23T03:41:13;91973.97;;;11.79;57.80
52249;BME280;38541;48.130;8.378;2024-03-23T03:43:38;91965.00;;;11.80;57.81
52249;BME280;38541;48.130;8.378;2024-03-23T03:46:04;91974.78;;;11.79;57.72
52249;BME280;38541;48.130;8.378;2024-03-23T03:48:30;91951.84;;;11.80;57.74
52249;BME280;38541;48.130;8.378;2024-03-23T03:50:56;91942.41;;;11.79;58.03
52249;BME280;38541;48.130;8.378;2024-03-23T03:53:23;91926.34;;;11.80;58.05
52249;BME280;38541;48.130;8.378;2024-03-23T03:55:49;91934.00;;;11.77;58.14
52249;BME280;38541;48.130;8.378;2024-03-23T03:58:14;91926.69;;;11.74;58.34
52249;BME280;38541;48.130;8.378;2024-03-23T04:00:40;91925.03;;;11.78;58.37
52249;BME280;38541;48.130;8.378;2024-03-23T04:03:05;91933.25;;;11.76;58.57
52249;BME280;38541;48.130;8.378;2024-03-23T04:05:31;91925.41;;;11.71;58.77
52249;BME280;38541;48.130;8.378;2024-03-23T04:07:56;91923.50;;;11.77;59.51
52249;BME280;38541;48.130;8.378;2024-03-23T04:10:22;91925.03;;;11.78;60.07
52249;BME280;38541;48.130;8.378;2024-03-23T04:12:48;91928.16;;;11.80;59.68
52249;BME280;38541;48.130;8.378;2024-03-23T04:15:14;91911.78;;;11.69;60.19
52249;BME280;38541;48.130;8.378;2024-03-23T04:17:39;91913.69;;;11.63;60.99
52249;BME280;38541;48.130;8.378;2024-03-23T04:20:06;91907.59;;;11.68;60.96
52249;BME280;38541;48.130;8.378;2024-03-23T04:22:37;91887.03;;;11.70;61.26
52249;BME280;38541;48.130;8.378;2024-03-23T04:25:03;91898.34;;;11.70;61.50
52249;BME280;38541;48.130;8.378;2024-03-23T04:27:36;91900.28;;;11.65;62.55
52249;BME280;38541;48.130;8.378;2024-03-23T04:30:03;91893.41;;;11.50;63.22
52249;BME280;38541;48.130;8.378;2024-03-23T04:32:31;91879.09;;;11.42;63.85
52249;BME280;38541;48.130;8.378;2024-03-23T04:34:56;91877.63;;;11.50;64.13
52249;BME280;38541;48.130;8.378;2024-03-23T04:37:22;91876.19;;;11.58;63.91
52249;BME280;38541;48.130;8.378;2024-03-23T04:39:48;91871.94;;;11.42;63.79
52249;BME280;38541;48.130;8.378;2024-03-23T04:42:17;91873.25;;;11.45;64.23
52249;BME280;38541;48.130;8.378;2024-03-23T04:44:42;91859.47;;;11.34;64.97
52249;BME280;38541;48.130;8.378;2024-03-23T04:47:08;91870.88;;;11.44;65.06
52249;BME280;38541;48.130;8.378;2024-03-23T04:49:38;91865.94;;;11.42;65.43
52249;BME280;38541;48.130;8.378;2024-03-23T04:52:04;91875.59;;;11.47;65.79
52249;BME280;38541;48.130;8.378;2024-03-23T04:54:30;91865.97;;;11.23;66.07
52249;BME280;38541;48.130;8.378;2024-03-23T04:56:58;91862.94;;;11.16;66.58
52249;BME280;38541;48.130;8.378;2024-03-23T04:59:23;91869.97;;;11.20;66.43
52249;BME280;38541;48.130;8.378;2024-03-23T05:01:49;91850.28;;;11.18;66.47
52249;BME280;38541;48.130;8.378;2024-03-23T05:04:15;91860.22;;;11.21;66.12
52249;BME280;38541;48.130;8.378;2024-03-23T05:06:41;91852.75;;;11.28;65.99
52249;BME280;38541;48.130;8.378;2024-03-23T05:09:06;91844.34;;;11.26;65.60
52249;BME280;38541;48.130;8.378;2024-03-23T05:11:33;91848.34;;;11.23;65.72
52249;BME280;38541;48.130;8.378;2024-03-23T05:13:59;91873.94;;;11.18;65.24
52249;BME280;38541;48.130;8.378;2024-03-23T05:16:26;91877.06;;;11.20;64.27
52249;BME280;38541;48.130;8.378;2024-03-23T05:18:52;91896.81;;;11.17;65.28
52249;BME280;38541;48.130;8.378;2024-03-23T05:21:17;91920.53;;;10.74;66.98
52249;BME280;38541;48.130;8.378;2024-03-23T05:23:43;91918.97;;;10.53;68.56
52249;BME280;38541;48.130;8.378;2024-03-23T05:26:09;91947.53;;;10.31;70.57
52249;BME280;38541;48.130;8.378;2024-03-23T05:28:35;91929.88;;;10.12;72.35
52249;BME280;38541;48.130;8.378;2024-03-23T05:31:01;91923.56;;;10.13;72.13
52249;BME280;38541;48.130;8.378;2024-03-23T05:33:26;91916.06;;;10.06;72.39
52249;BME280;38541;48.130;8.378;2024-03-23T05:36:00;91942.63;;;9.99;72.99
52249;BME280;38541;48.130;8.378;2024-03-23T05:38:26;91958.38;;;9.99;73.51
52249;BME280;38541;48.130;8.378;2024-03-23T05:40:55;91949.13;;;9.78;74.39
52249;BME280;38541;48.130;8.378;2024-03-23T05:43:21;91964.94;;;9.67;74.14
52249;BME280;38541;48.130;8.378;2024-03-23T05:46:00;91961.38;;;9.53;74.59
52249;BME280;38541;48.130;8.378;2024-03-23T05:48:27;91951.56;;;9.34;75.15
52249;BME280;38541;48.130;8.378;2024-03-23T05:50:53;91964.72;;;9.29;75.52
52249;BME280;38541;48.130;8.378;2024-03-23T05:53:19;91957.75;;;9.14;74.81
52249;BME280;38541;48.130;8.378;2024-03-23T05:55:48;91970.84;;;9.09;74.79
52249;BME280;38541;48.130;8.378;2024-03-23T05:58:17;91970.16;;;8.93;73.75
52249;BME280;38541;48.130;8.378;2024-03-23T06:00:44;91987.78;;;8.82;74.07
52249;BME280;38541;48.130;8.378;2024-03-23T06:03:10;91971.59;;;8.75;74.56
52249;BME280;38541;48.130;8.378;2024-03-23T06:05:39;91974.47;;;8.73;74.41
52249;BME280;38541;48.130;8.378;2024-03-23T06:08:05;91978.72;;;8.59;74.19
52249;BME280;38541;48.130;8.378;2024-03-23T06:10:31;91986.06;;;8.51;74.83
52249;BME280;38541;48.130;8.378;2024-03-23T06:12:59;91985.81;;;8.42;74.91
52249;BME280;38541;48.130;8.378;2024-03-23T06:15:25;91980.31;;;8.39;75.17
52249;BME280;38541;48.130;8.378;2024-03-23T06:17:51;91995.50;;;8.37;75.08
52249;BME280;38541;48.130;8.378;2024-03-23T06:20:17;91999.72;;;8.22;75.84
52249;BME280;38541;48.130;8.378;2024-03-23T06:22:43;92004.97;;;8.22;75.81
52249;BME280;38541;48.130;8.378;2024-03-23T06:25:08;92007.88;;;8.16;75.69
52249;BME280;38541;48.130;8.378;2024-03-23T06:27:34;91989.28;;;8.17;75.45
52249;BME280;38541;48.130;8.378;2024-03-23T06:30:00;92000.28;;;8.04;75.41
52249;BME280;38541;48.130;8.378;2024-03-23T06:32:25;92011.28;;;7.95;75.61
52249;BME280;38541;48.130;8.378;2024-03-23T06:34:51;92022.31;;;7.87;76.47
52249;BME280;38541;48.130;8.378;2024-03-23T06:37:16;92034.84;;;7.69;76.33
52249;BME280;38541;48.130;8.378;2024-03-23T06:39:42;92044.75;;;7.31;76.39
52249;BME280;38541;48.130;8.378;2024-03-23T06:42:07;92052.59;;;7.31;76.66
52249;BME280;38541;48.130;8.378;2024-03-23T06:44:33;92075.81;;;7.22;75.87
52249;BME280;38541;48.130;8.378;2024-03-23T06:46:59;92067.47;;;7.20;75.26
52249;BME280;38541;48.130;8.378;2024-03-23T06:49:25;92081.53;;;7.14;74.63
52249;BME280;38541;48.130;8.378;2024-03-23T06:51:50;92063.25;;;7.14;74.32
52249;BME280;38541;48.130;8.378;2024-03-23T06:54:17;92092.78;;;7.14;73.77
52249;BME280;38541;48.130;8.378;2024-03-23T06:56:44;92100.28;;;7.00;73.00
52249;BME280;38541;48.130;8.378;2024-03-23T06:59:09;92103.69;;;6.96;72.88
52249;BME280;38541;48.130;8.378;2024-03-23T07:01:35;92103.69;;;7.06;72.74
52249;BME280;38541;48.130;8.378;2024-03-23T07:04:01;92110.41;;;6.87;73.33
52249;BME280;38541;48.130;8.378;2024-03-23T07:06:26;92108.28;;;6.78;73.31
52249;BME280;38541;48.130;8.378;2024-03-23T07:08:52;92130.69;;;6.69;72.44
52249;BME280;38541;48.130;8.378;2024-03-23T07:11:22;92116.59;;;6.70;72.87
52249;BME280;38541;48.130;8.378;2024-03-23T07:13:51;92122.41;;;6.82;73.43
52249;BME280;38541;48.130;8.378;2024-03-23T07:16:17;92127.31;;;6.74;73.61
52249;BME280;38541;48.130;8.378;2024-03-23T07:18:43;92139.84;;;6.71;73.63
52249;BME280;38541;48.130;8.378;2024-03-23T07:21:09;92140.03;;;6.54;73.23
52249;BME280;38541;48.130;8.378;2024-03-23T07:23:35;92155.69;;;6.54;73.75
52249;BME280;38541;48.130;8.378;2024-03-23T07:26:05;92145.72;;;6.51;74.36
52249;BME280;38541;48.130;8.378;2024-03-23T07:28:31;92152.78;;;6.51;75.09
52249;BME280;38541;48.130;8.378;2024-03-23T07:31:08;92164.44;;;6.38;74.24
52249;BME280;38541;48.130;8.378;2024-03-23T07:33:35;92160.69;;;6.28;74.63
52249;BME280;38541;48.130;8.378;2024-03-23T07:36:01;92152.66;;;6.35;75.77
52249;BME280;38541;48.130;8.378;2024-03-23T07:38:28;92164.38;;;6.33;75.61
52249;BME280;38541;48.130;8.378;2024-03-23T07:41:04;92173.00;;;6.33;74.68
52249;BME280;38541;48.130;8.378;2024-03-23T07:43:30;92190.63;;;6.21;75.13
52249;BME280;38541;48.130;8.378;2024-03-23T07:45:56;92173.69;;;6.18;75.18
52249;BME280;38541;48.130;8.378;2024-03-23T07:48:21;92207.25;;;6.09;74.74
52249;BME280;38541;48.130;8.378;2024-03-23T07:51:09;92194.75;;;6.11;75.25
52249;BME280;38541;48.130;8.378;2024-03-23T07:53:36;92206.13;;;6.33;75.05
52249;BME280;38541;48.130;8.378;2024-03-23T07:56:05;92207.78;;;6.44;74.45
52249;BME280;38541;48.130;8.378;2024-03-23T07:58:31;92217.38;;;6.38;74.10
52249;BME280;38541;48.130;8.378;2024-03-23T08:01:10;92227.81;;;6.38;73.89
52249;BME280;38541;48.130;8.378;2024-03-23T08:03:40;92232.88;;;6.50;72.97
52249;BME280;38541;48.130;8.378;2024-03-23T08:06:13;92255.13;;;6.58;72.84
52249;BME280;38541;48.130;8.378;2024-03-23T08:08:40;92260.66;;;6.67;71.68
52249;BME280;38541;48.130;8.378;2024-03-23T08:11:06;92275.56;;;6.66;70.92
52249;BME280;38541;48.130;8.378;2024-03-23T08:13:34;92290.78;;;6.47;69.70
52249;BME280;38541;48.130;8.378;2024-03-23T08:16:01;92287.03;;;6.65;70.51
52249;BME280;38541;48.130;8.378;2024-03-23T08:18:27;92278.94;;;6.67;69.70
52249;BME280;38541;48.130;8.378;2024-03-23T08:21:00;92300.16;;;6.76;70.10
52249;BME280;38541;48.130;8.378;2024-03-23T08:23:31;92312.09;;;6.66;68.47
52249;BME280;38541;48.130;8.378;2024-03-23T08:26:03;92315.25;;;6.68;67.95
52249;BME280;38541;48.130;8.378;2024-03-23T08:28:29;92332.00;;;6.45;67.02
52249;BME280;38541;48.130;8.378;2024-03-23T08:30:56;92309.94;;;6.58;67.69
52249;BME280;38541;48.130;8.378;2024-03-23T08:33:22;92295.34;;;6.35;67.32
52249;BME280;38541;48.130;8.378;2024-03-23T08:35:57;92311.63;;;6.42;67.91
52249;BME280;38541;48.130;8.378;2024-03-23T08:38:24;92309.09;;;6.52;68.86
52249;BME280;38541;48.130;8.378;2024-03-23T08:41:00;92336.88;;;6.36;68.76
52249;BME280;38541;48.130;8.378;2024-03-23T08:43:26;92335.69;;;6.49;67.79
52249;BME280;38541;48.130;8.378;2024-03-23T08:45:52;92349.25;;;6.79;66.51
52249;BME280;38541;48.130;8.378;2024-03-23T08:48:21;92357.75;;;6.64;65.64
52249;BME280;38541;48.130;8.378;2024-03-23T08:50:47;92362.97;;;6.64;67.23
52249;BME280;38541;48.130;8.378;2024-03-23T08:53:13;92346.75;;;6.62;66.47
52249;BME280;38541;48.130;8.378;2024-03-23T08:55:39;92362.03;;;6.75;66.33
52249;BME280;38541;48.130;8.378;2024-03-23T08:58:05;92359.91;;;6.72;65.86
52249;BME280;38541;48.130;8.378;2024-03-23T09:00:34;92362.56;;;6.77;64.86
52249;BME280;38541;48.130;8.378;2024-03-23T09:02:59;92368.56;;;6.78;62.64
52249;BME280;38541;48.130;8.378;2024-03-23T09:05:27;92362.28;;;6.74;65.00
52249;BME280;38541;48.130;8.378;2024-03-23T09:07:54;92374.78;;;6.99;65.52
52249;BME280;38541;48.130;8.378;2024-03-23T09:10:19;92380.31;;;6.75;63.48
52249;BME280;38541;48.130;8.378;2024-03-23T09:12:45;92387.19;;;6.87;63.90
52249;BME280;38541;48.130;8.378;2024-03-23T09:15:10;92372.91;;;6.94;63.29
52249;BME280;38541;48.130;8.378;2024-03-23T09:17:36;92374.63;;;6.83;62.78
52249;BME280;38541;48.130;8.378;2024-03-23T09:20:02;92369.44;;;6.89;62.36
52249;BME280;38541;48.130;8.378;2024-03-23T09:22:29;92374.78;;;6.71;60.84
52249;BME280;38541;48.130;8.378;2024-03-23T09:24:55;92379.63;;;6.57;62.45
52249;BME280;38541;48.130;8.378;2024-03-23T09:27:20;92389.88;;;6.92;62.16
52249;BME280;38541;48.130;8.378;2024-03-23T09:29:46;92365.72;;;6.79;61.59
52249;BME280;38541;48.130;8.378;2024-03-23T09:32:11;92380.09;;;6.82;62.41
52249;BME280;38541;48.130;8.378;2024-03-23T09:34:37;92383.38;;;6.72;62.18
52249;BME280;38541;48.130;8.378;2024-03-23T09:37:03;92389.56;;;6.61;60.96
52249;BME280;38541;48.130;8.378;2024-03-23T09:39:28;92374.78;;;6.71;61.58
52249;BME280;38541;48.130;8.378;2024-03-23T09:41:57;92362.25;;;7.01;60.38
52249;BME280;38541;48.130;8.378;2024-03-23T09:44:24;92365.59;;;6.96;60.53
52249;BME280;38541;48.130;8.378;2024-03-23T09:46:51;92352.97;;;7.16;60.65
52249;BME280;38541;48.130;8.378;2024-03-23T09:49:17;92346.84;;;7.42;60.43
52249;BME280;38541;48.130;8.378;2024-03-23T09:51:42;92362.63;;;7.58;60.12
52249;BME280;38541;48.130;8.378;2024-03-23T09:54:08;92362.81;;;7.41;58.88
52249;BME280;38541;48.130;8.378;2024-03-23T09:56:34;92353.03;;;7.26;59.14
52249;BME280;38541;48.130;8.378;2024-03-23T09:59:01;92351.44;;;7.63;59.62
52249;BME280;38541;48.130;8.378;2024-03-23T10:01:26;92348.75;;;7.52;59.80
52249;BME280;38541;48.130;8.378;2024-03-23T10:03:52;92349.50;;;7.48;59.39
52249;BME280;38541;48.130;8.378;2024-03-23T10:06:21;92343.50;;;7.09;58.97
52249;BME280;38541;48.130;8.378;2024-03-23T10:08:47;92357.03;;;7.01;58.94
52249;BME280;38541;48.130;8.378;2024-03-23T10:11:14;92339.28;;;7.03;58.80
52249;BME280;38541;48.130;8.378;2024-03-23T10:13:44;92347.63;;;7.00;58.18
52249;BME280;38541;48.130;8.378;2024-03-23T10:16:12;92357.38;;;7.53;60.15
52249;BME280;38541;48.130;8.378;2024-03-23T10:18:39;92372.47;;;7.83;56.90
52249;BME280;38541;48.130;8.378;2024-03-23T10:23:30;92380.53;;;7.01;55.16
52249;BME280;38541;48.130;8.378;2024-03-23T10:26:12;92377.00;;;7.18;54.42
52249;BME280;38541;48.130;8.378;2024-03-23T10:28:50;92348.81;;;7.20;55.33
52249;BME280;38541;48.130;8.378;2024-03-23T10:31:16;92343.66;;;7.30;54.68
52249;BME280;38541;48.130;8.378;2024-03-23T10:33:49;92346.59;;;7.06;54.72
52249;BME280;38541;48.130;8.378;2024-03-23T10:36:15;92359.66;;;7.06;56.31
52249;BME280;38541;48.130;8.378;2024-03-23T10:38:42;92361.75;;;7.04;56.27
52249;BME280;38541;48.130;8.378;2024-03-23T10:41:11;92356.41;;;7.21;56.27
52249;BME280;38541;48.130;8.378;2024-03-23T10:43:37;92350.00;;;7.02;56.28
52249;BME280;38541;48.130;8.378;2024-03-23T10:46:04;92351.63;;;6.80;56.28
52249;BME280;38541;48.130;8.378;2024-03-23T10:48:30;92355.81;;;6.81;57.25
52249;BME280;38541;48.130;8.378;2024-03-23T10:50:56;92357.34;;;6.77;58.29
52249;BME280;38541;48.130;8.378;2024-03-23T10:53:25;92370.84;;;6.69;59.46
52249;BME280;38541;48.130;8.378;2024-03-23T10:55:52;92356.75;;;6.42;59.90
52249;BME280;38541;48.130;8.378;2024-03-23T10:58:23;92363.28;;;6.18;60.48
52249;BME280;38541;48.130;8.378;2024-03-23T11:00:49;92354.59;;;6.12;62.70
52249;BME280;38541;48.130;8.378;2024-03-23T11:03:34;92366.66;;;5.96;63.26
52249;BME280;38541;48.130;8.378;2024-03-23T11:06:06;92357.06;;;5.40;64.83
52249;BME280;38541;48.130;8.378;2024-03-23T11:11:21;92373.59;;;5.68;66.35
52249;BME280;38541;48.130;8.378;2024-03-23T11:13:49;92368.56;;;5.61;66.82
52249;BME280;38541;48.130;8.378;2024-03-23T11:16:16;92383.69;;;5.81;67.31
52249;BME280;38541;48.130;8.378;2024-03-23T11:18:43;92386.06;;;5.66;67.70
52249;BME280;38541;48.130;8.378;2024-03-23T11:21:10;92398.19;;;5.21;67.61
52249;BME280;38541;48.130;8.378;2024-03-23T11:23:36;92406.56;;;5.06;68.77
52249;BME280;38541;48.130;8.378;2024-03-23T11:26:01;92421.50;;;4.64;69.74
52249;BME280;38541;48.130;8.378;2024-03-23T11:28:27;92432.50;;;4.54;69.96
52249;BME280;38541;48.130;8.378;2024-03-23T11:30:53;92444.41;;;4.50;70.03
52249;BME280;38541;48.130;8.378;2024-03-23T11:33:19;92459.38;;;4.31;70.04
52249;BME280;38541;48.130;8.378;2024-03-23T11:35:44;92462.13;;;4.00;71.60
52249;BME280;38541;48.130;8.378;2024-03-23T11:38:11;92445.53;;;3.90;70.78
52249;BME280;38541;48.130;8.378;2024-03-23T11:40:45;92433.34;;;3.90;71.23
52249;BME280;38541;48.130;8.378;2024-03-23T11:43:15;92431.69;;;4.25;70.98
52249;BME280;38541;48.130;8.378;2024-03-23T11:45:49;92421.66;;;4.46;70.73
52249;BME280;38541;48.130;8.378;2024-03-23T11:48:20;92411.91;;;4.53;68.77
52249;BME280;38541;48.130;8.378;2024-03-23T11:50:49;92408.69;;;5.43;70.95
52249;BME280;38541;48.130;8.378;2024-03-23T11:56:00;92403.94;;;6.36;70.47
52249;BME280;38541;48.130;8.378;2024-03-23T11:58:27;92390.13;;;6.95;68.17
52249;BME280;38541;48.130;8.378;2024-03-23T12:03:23;92383.00;;;6.58;66.76
52249;BME280;38541;48.130;8.378;2024-03-23T12:05:55;92375.97;;;6.59;65.92
52249;BME280;38541;48.130;8.378;2024-03-23T12:08:24;92384.06;;;6.35;65.63
52249;BME280;38541;48.130;8.378;2024-03-23T12:11:05;92391.03;;;6.51;67.20
52249;BME280;38541;48.130;8.378;2024-03-23T12:13:31;92375.94;;;7.13;64.50
52249;BME280;38541;48.130;8.378;2024-03-23T12:18:41;92385.22;;;7.37;62.64
52249;BME280;38541;48.130;8.378;2024-03-23T12:21:08;92381.41;;;7.12;61.54
52249;BME280;38541;48.130;8.378;2024-03-23T12:23:34;92378.94;;;6.67;61.95
52249;BME280;38541;48.130;8.378;2024-03-23T12:26:00;92372.81;;;6.56;63.50
52249;BME280;38541;48.130;8.378;2024-03-23T12:28:25;92389.44;;;7.05;62.24
52249;BME280;38541;48.130;8.378;2024-03-23T12:30:51;92370.78;;;7.24;59.73
52249;BME280;38541;48.130;8.378;2024-03-23T12:33:18;92372.34;;;7.25;60.75
52249;BME280;38541;48.130;8.378;2024-03-23T12:35:44;92366.63;;;7.71;62.81
52249;BME280;38541;48.130;8.378;2024-03-23T12:38:09;92354.34;;;7.28;62.25
52249;BME280;38541;48.130;8.378;2024-03-23T12:40:35;92340.56;;;7.00;59.48
52249;BME280;38541;48.130;8.378;2024-03-23T12:43:00;92347.97;;;7.52;60.11
52249;BME280;38541;48.130;8.378;2024-03-23T12:45:26;92348.31;;;7.71;60.02
52249;BME280;38541;48.130;8.378;2024-03-23T12:47:52;92348.25;;;8.09;59.08
52249;BME280;38541;48.130;8.378;2024-03-23T12:50:21;92371.63;;;7.73;56.73
52249;BME280;38541;48.130;8.378;2024-03-23T12:52:47;92362.72;;;7.74;56.73
52249;BME280;38541;48.130;8.378;2024-03-23T12:55:13;92336.56;;;7.68;57.10
52249;BME280;38541;48.130;8.378;2024-03-23T12:57:38;92297.19;;;7.96;58.85
52249;BME280;38541;48.130;8.378;2024-03-23T13:00:06;92299.19;;;8.57;57.14
52249;BME280;38541;48.130;8.378;2024-03-23T13:02:32;92295.53;;;9.10;55.82
52249;BME280;38541;48.130;8.378;2024-03-23T13:05:00;92291.56;;;9.49;54.75
52249;BME280;38541;48.130;8.378;2024-03-23T13:07:25;92280.03;;;9.40;55.64
52249;BME280;38541;48.130;8.378;2024-03-23T13:09:52;92277.28;;;9.87;52.83
52249;BME280;38541;48.130;8.378;2024-03-23T13:12:21;92271.81;;;9.67;52.21
52249;BME280;38541;48.130;8.378;2024-03-23T13:14:47;92299.06;;;9.71;51.87
52249;BME280;38541;48.130;8.378;2024-03-23T13:17:13;92282.19;;;9.93;51.53
52249;BME280;38541;48.130;8.378;2024-03-23T13:19:38;92293.44;;;10.04;51.17
52249;BME280;38541;48.130;8.378;2024-03-23T13:22:04;92296.44;;;10.37;51.13
52249;BME280;38541;48.130;8.378;2024-03-23T13:24:31;92299.84;;;10.43;51.12
52249;BME280;38541;48.130;8.378;2024-03-23T13:26:57;92319.03;;;9.67;51.12
52249;BME280;38541;48.130;8.378;2024-03-23T13:29:23;92353.50;;;8.19;55.06
52249;BME280;38541;48.130;8.378;2024-03-23T13:31:51;92361.91;;;7.25;57.08
52249;BME280;38541;48.130;8.378;2024-03-23T13:34:17;92341.72;;;6.82;59.22
52249;BME280;38541;48.130;8.378;2024-03-23T13:36:44;92347.06;;;6.65;61.55
52249;BME280;38541;48.130;8.378;2024-03-23T13:39:11;92347.34;;;6.69;61.09
52249;BME280;38541;48.130;8.378;2024-03-23T13:41:41;92328.53;;;6.67;62.44
52249;BME280;38541;48.130;8.378;2024-03-23T13:44:07;92339.16;;;6.88;62.04
52249;BME280;38541;48.130;8.378;2024-03-23T13:46:33;92328.75;;;7.31;60.99
52249;BME280;38541;48.130;8.378;2024-03-23T13:49:00;92307.03;;;8.52;60.34
52249;BME280;38541;48.130;8.378;2024-03-23T13:51:26;92293.47;;;11.53;53.02
52249;BME280;38541;48.130;8.378;2024-03-23T13:53:56;92294.78;;;14.88;41.08
52249;BME280;38541;48.130;8.378;2024-03-23T13:56:22;92285.00;;;16.99;38.76
52249;BME280;38541;48.130;8.378;2024-03-23T13:58:48;92296.03;;;17.45;35.72
52249;BME280;38541;48.130;8.378;2024-03-23T14:01:17;92290.34;;;17.64;37.27
52249;BME280;38541;48.130;8.378;2024-03-23T14:03:43;92295.66;;;19.70;32.30
52249;BME280;38541;48.130;8.378;2024-03-23T14:06:09;92278.66;;;18.13;32.86
52249;BME280;38541;48.130;8.378;2024-03-23T14:08:36;92273.59;;;17.07;33.97
52249;BME280;38541;48.130;8.378;2024-03-23T14:11:08;92280.13;;;14.03;37.99
52249;BME280;38541;48.130;8.378;2024-03-23T14:13:34;92287.66;;;12.30;42.97